Kermit, TX

5:50 PM CDT on May 04, 2015 (GMT -0500)
Winkler County | | Change Station
CLOSE
Current Station
Airport
Location: Wink,
Elevation: 2822 ft
Nearby Weather Stations
Active Advisory: Tornado Watch

Elev 2822 ft 31.78 °N, 103.20 °W | Updated 12 minutes ago

Partly Cloudy
Partly Cloudy
76 °F
Feels Like 76 °F
N
28
Wind Variable Wind from SE
Gusts 36 mph

Today
High -- | Low -- °F
--% Chance of Precip.
Yesterday
High -- | Low -- °F
Precip. -- in
7:04 AM 8:34 PM
Full, 99% visible
Pressure 29.82 in
Visibility 10.0 miles
Clouds Clear
Dew Point 57 °F
Humidity 52%
Rainfall 0.00 in
Snow Depth Not available.
UV 5 out of 12
Pollen 6.50 out of 12
Air Quality Not available.
Flu Activity Sporadic
SPECI KINK 042238Z AUTO 14024G31KT 10SM TS CLR 24/14 A2982 RMK AO2 PK WND 15031/2237 LTG DSNT W TSB32 T02440139

More Conditions Fewer Conditions

Pressure 29.82 in
Visibility 10.0 miles
Clouds Clear
Dew Point 57 °F
Humidity 52%
Rainfall 0.00 in
Snow Depth Not available.
UV 5 out of 12
Pollen 6.50 out of 12
Air Quality Not available.
Flu Activity Sporadic
SPECI KINK 042238Z AUTO 14024G31KT 10SM TS CLR 24/14 A2982 RMK AO2 PK WND 15031/2237 LTG DSNT W TSB32 T02440139

More Conditions Fewer Conditions

Nepal has a long way to go to dig out and rebuild from a devastating earthquake. We have teamed up with several charities and organizations to make contributing to the relief effort as easy as possible.
How you can help: Portlight Strategies | Red Cross

10-Day Weather Forecast

Almanac

Astronomy

May. 04, 2015 Rise Set
Actual Time
Civil Twilight
Nautical Twilight
Astronomical Twilight
Moon
Length of Visible Light
Length of Day
Tomorrow will be .
, % of the Moon is Illuminated

Today's Extremes

State Highs State Lows

Community

WunderPhotos

Upload Photos

1,818,720 photos uploaded!

WunderBlogs® & News

Nearby

Air Quality

  Air Quality AQ Index Pollutant
Not available.

Snow Depth

Station Depth Elevation

Earthquake Activity

City Distance Mag. Time & Date
Minimum magnitude displayed is 2.5.

Coastal Water Temperatures

Place Temperature

Stations

Nearby Weather Stations

Station Location Temp. Windchill Dew Point Humidity Wind Precip. Elev Updated Type
                   
Tornado Watch
Statement as of 4:03 PM CDT on May 04, 2015

Tornado Watch 129 remains in effect until 800 PM CDT for the
following locations


TX
. Texas counties included are

Brewster Crane Loving
Pecos Reeves Terrell
Ward Winkler